sensor_id;sensor_type;location;lat;lon;timestamp;P1;durP1;ratioP1;P2;durP2;ratioP2
59824;SDS011;45703;50.898;6.054;2023-05-31T00:01:11;9.32;;;4.82;;
59824;SDS011;45703;50.898;6.054;2023-05-31T00:03:37;9.65;;;4.90;;
59824;SDS011;45703;50.898;6.054;2023-05-31T00:06:08;9.98;;;4.88;;
59824;SDS011;45703;50.898;6.054;2023-05-31T00:08:36;9.98;;;4.88;;
59824;SDS011;45703;50.898;6.054;2023-05-31T00:11:01;9.45;;;5.32;;
59824;SDS011;45703;50.898;6.054;2023-05-31T00:13:27;9.48;;;4.75;;
59824;SDS011;45703;50.898;6.054;2023-05-31T00:15:52;8.68;;;4.65;;
59824;SDS011;45703;50.898;6.054;2023-05-31T00:18:18;10.38;;;5.10;;
59824;SDS011;45703;50.898;6.054;2023-05-31T00:20:43;10.48;;;4.72;;
59824;SDS011;45703;50.898;6.054;2023-05-31T00:23:08;9.90;;;4.97;;
59824;SDS011;45703;50.898;6.054;2023-05-31T00:25:35;10.55;;;5.40;;
59824;SDS011;45703;50.898;6.054;2023-05-31T00:28:00;10.48;;;4.68;;
59824;SDS011;45703;50.898;6.054;2023-05-31T00:30:26;9.57;;;4.90;;
59824;SDS011;45703;50.898;6.054;2023-05-31T00:32:51;9.90;;;5.18;;
59824;SDS011;45703;50.898;6.054;2023-05-31T00:35:16;9.80;;;5.28;;
59824;SDS011;45703;50.898;6.054;2023-05-31T00:37:42;11.20;;;5.43;;
59824;SDS011;45703;50.898;6.054;2023-05-31T00:40:07;11.48;;;5.32;;
59824;SDS011;45703;50.898;6.054;2023-05-31T00:42:33;10.73;;;5.20;;
59824;SDS011;45703;50.898;6.054;2023-05-31T00:44:58;10.07;;;5.05;;
59824;SDS011;45703;50.898;6.054;2023-05-31T00:47:24;10.60;;;5.18;;
59824;SDS011;45703;50.898;6.054;2023-05-31T00:49:51;9.38;;;4.93;;
59824;SDS011;45703;50.898;6.054;2023-05-31T00:52:17;10.70;;;5.30;;
59824;SDS011;45703;50.898;6.054;2023-05-31T00:54:43;10.90;;;5.05;;
59824;SDS011;45703;50.898;6.054;2023-05-31T00:57:08;10.68;;;5.50;;
59824;SDS011;45703;50.898;6.054;2023-05-31T00:59:35;11.35;;;5.75;;
59824;SDS011;45703;50.898;6.054;2023-05-31T01:02:01;12.07;;;5.68;;
59824;SDS011;45703;50.898;6.054;2023-05-31T01:04:29;11.23;;;5.45;;
59824;SDS011;45703;50.898;6.054;2023-05-31T01:06:55;9.68;;;5.22;;
59824;SDS011;45703;50.898;6.054;2023-05-31T01:09:21;11.52;;;5.53;;
59824;SDS011;45703;50.898;6.054;2023-05-31T01:16:53;9.85;;;5.30;;
59824;SDS011;45703;50.898;6.054;2023-05-31T01:19:29;12.70;;;6.05;;
59824;SDS011;45703;50.898;6.054;2023-05-31T01:22:29;11.82;;;5.68;;
59824;SDS011;45703;50.898;6.054;2023-05-31T01:27:53;11.13;;;5.80;;
59824;SDS011;45703;50.898;6.054;2023-05-31T01:30:20;11.93;;;5.70;;
59824;SDS011;45703;50.898;6.054;2023-05-31T01:32:46;10.20;;;5.22;;
59824;SDS011;45703;50.898;6.054;2023-05-31T01:35:13;10.23;;;5.22;;
59824;SDS011;45703;50.898;6.054;2023-05-31T01:37:38;9.75;;;5.13;;
59824;SDS011;45703;50.898;6.054;2023-05-31T01:40:04;10.95;;;5.72;;
59824;SDS011;45703;50.898;6.054;2023-05-31T01:42:31;11.13;;;5.40;;
59824;SDS011;45703;50.898;6.054;2023-05-31T01:44:56;9.80;;;5.40;;
59824;SDS011;45703;50.898;6.054;2023-05-31T01:47:22;10.65;;;5.63;;
59824;SDS011;45703;50.898;6.054;2023-05-31T01:49:48;11.32;;;5.30;;
59824;SDS011;45703;50.898;6.054;2023-05-31T01:52:15;9.82;;;5.47;;
59824;SDS011;45703;50.898;6.054;2023-05-31T01:54:42;11.52;;;5.22;;
59824;SDS011;45703;50.898;6.054;2023-05-31T01:57:08;10.35;;;5.35;;
59824;SDS011;45703;50.898;6.054;2023-05-31T01:59:34;10.50;;;5.30;;
59824;SDS011;45703;50.898;6.054;2023-05-31T02:02:02;10.18;;;5.65;;
59824;SDS011;45703;50.898;6.054;2023-05-31T02:04:28;11.55;;;5.60;;
59824;SDS011;45703;50.898;6.054;2023-05-31T02:06:53;11.95;;;5.47;;
59824;SDS011;45703;50.898;6.054;2023-05-31T02:09:20;11.07;;;5.15;;
59824;SDS011;45703;50.898;6.054;2023-05-31T02:11:46;10.25;;;5.80;;
59824;SDS011;45703;50.898;6.054;2023-05-31T02:14:11;12.82;;;5.90;;
59824;SDS011;45703;50.898;6.054;2023-05-31T02:16:37;12.13;;;5.63;;
59824;SDS011;45703;50.898;6.054;2023-05-31T02:19:02;11.93;;;5.95;;
59824;SDS011;45703;50.898;6.054;2023-05-31T02:21:32;12.95;;;6.28;;
59824;SDS011;45703;50.898;6.054;2023-05-31T02:23:58;12.38;;;6.10;;
59824;SDS011;45703;50.898;6.054;2023-05-31T02:26:24;12.77;;;6.13;;
59824;SDS011;45703;50.898;6.054;2023-05-31T02:28:49;11.38;;;6.00;;
59824;SDS011;45703;50.898;6.054;2023-05-31T02:31:15;11.55;;;5.78;;
59824;SDS011;45703;50.898;6.054;2023-05-31T02:33:40;11.02;;;5.70;;
59824;SDS011;45703;50.898;6.054;2023-05-31T02:36:09;11.73;;;5.95;;
59824;SDS011;45703;50.898;6.054;2023-05-31T02:38:35;11.70;;;5.88;;
59824;SDS011;45703;50.898;6.054;2023-05-31T02:41:00;11.63;;;5.97;;
59824;SDS011;45703;50.898;6.054;2023-05-31T02:43:26;12.00;;;6.00;;
59824;SDS011;45703;50.898;6.054;2023-05-31T02:45:51;11.90;;;5.97;;
59824;SDS011;45703;50.898;6.054;2023-05-31T02:48:17;11.80;;;6.07;;
59824;SDS011;45703;50.898;6.054;2023-05-31T02:50:42;10.82;;;5.82;;
59824;SDS011;45703;50.898;6.054;2023-05-31T02:53:07;13.20;;;6.35;;
59824;SDS011;45703;50.898;6.054;2023-05-31T02:55:33;11.60;;;6.05;;
59824;SDS011;45703;50.898;6.054;2023-05-31T02:57:58;11.45;;;6.28;;
59824;SDS011;45703;50.898;6.054;2023-05-31T03:00:24;12.45;;;5.95;;
59824;SDS011;45703;50.898;6.054;2023-05-31T03:02:50;12.60;;;6.45;;
59824;SDS011;45703;50.898;6.054;2023-05-31T03:05:16;11.98;;;6.25;;
59824;SDS011;45703;50.898;6.054;2023-05-31T03:07:42;13.00;;;6.38;;
59824;SDS011;45703;50.898;6.054;2023-05-31T03:10:07;12.88;;;7.03;;
59824;SDS011;45703;50.898;6.054;2023-05-31T03:12:34;11.65;;;6.28;;
59824;SDS011;45703;50.898;6.054;2023-05-31T03:14:59;11.20;;;6.28;;
59824;SDS011;45703;50.898;6.054;2023-05-31T03:17:25;12.45;;;6.60;;
59824;SDS011;45703;50.898;6.054;2023-05-31T03:19:50;13.80;;;6.68;;
59824;SDS011;45703;50.898;6.054;2023-05-31T03:22:16;13.23;;;6.97;;
59824;SDS011;45703;50.898;6.054;2023-05-31T03:24:42;12.18;;;6.80;;
59824;SDS011;45703;50.898;6.054;2023-05-31T03:27:07;11.80;;;6.45;;
59824;SDS011;45703;50.898;6.054;2023-05-31T03:29:36;13.35;;;6.20;;
59824;SDS011;45703;50.898;6.054;2023-05-31T03:34:29;12.70;;;6.60;;
59824;SDS011;45703;50.898;6.054;2023-05-31T03:36:54;12.98;;;6.88;;
59824;SDS011;45703;50.898;6.054;2023-05-31T03:39:20;13.30;;;6.65;;
59824;SDS011;45703;50.898;6.054;2023-05-31T03:41:45;12.32;;;6.63;;
59824;SDS011;45703;50.898;6.054;2023-05-31T03:44:11;11.98;;;6.65;;
59824;SDS011;45703;50.898;6.054;2023-05-31T03:46:36;13.73;;;7.03;;
59824;SDS011;45703;50.898;6.054;2023-05-31T03:49:01;14.20;;;6.78;;
59824;SDS011;45703;50.898;6.054;2023-05-31T03:51:28;12.50;;;6.88;;
59824;SDS011;45703;50.898;6.054;2023-05-31T03:53:54;13.93;;;7.13;;
59824;SDS011;45703;50.898;6.054;2023-05-31T03:56:19;13.75;;;7.03;;
59824;SDS011;45703;50.898;6.054;2023-05-31T03:58:45;13.27;;;6.70;;
59824;SDS011;45703;50.898;6.054;2023-05-31T04:01:11;13.23;;;7.53;;
59824;SDS011;45703;50.898;6.054;2023-05-31T04:03:36;15.30;;;8.18;;
59824;SDS011;45703;50.898;6.054;2023-05-31T04:06:03;14.45;;;7.65;;
59824;SDS011;45703;50.898;6.054;2023-05-31T04:08:28;12.82;;;6.50;;
59824;SDS011;45703;50.898;6.054;2023-05-31T04:10:53;12.55;;;6.57;;
59824;SDS011;45703;50.898;6.054;2023-05-31T04:13:19;11.65;;;6.60;;
59824;SDS011;45703;50.898;6.054;2023-05-31T04:15:45;13.43;;;6.85;;
59824;SDS011;45703;50.898;6.054;2023-05-31T04:18:10;17.88;;;7.80;;
59824;SDS011;45703;50.898;6.054;2023-05-31T04:20:35;11.82;;;6.60;;
59824;SDS011;45703;50.898;6.054;2023-05-31T04:23:01;15.85;;;7.82;;
59824;SDS011;45703;50.898;6.054;2023-05-31T04:25:26;13.43;;;7.28;;
59824;SDS011;45703;50.898;6.054;2023-05-31T04:27:52;12.65;;;6.45;;
59824;SDS011;45703;50.898;6.054;2023-05-31T04:30:19;12.88;;;7.30;;
59824;SDS011;45703;50.898;6.054;2023-05-31T04:32:44;13.88;;;8.20;;
59824;SDS011;45703;50.898;6.054;2023-05-31T04:35:10;12.50;;;7.15;;
59824;SDS011;45703;50.898;6.054;2023-05-31T04:37:36;13.38;;;6.88;;
59824;SDS011;45703;50.898;6.054;2023-05-31T04:40:02;13.13;;;7.35;;
59824;SDS011;45703;50.898;6.054;2023-05-31T04:42:30;14.50;;;7.38;;
59824;SDS011;45703;50.898;6.054;2023-05-31T04:44:56;13.85;;;7.53;;
59824;SDS011;45703;50.898;6.054;2023-05-31T04:47:32;12.48;;;6.50;;
59824;SDS011;45703;50.898;6.054;2023-05-31T04:49:58;14.15;;;7.95;;
59824;SDS011;45703;50.898;6.054;2023-05-31T04:52:28;12.68;;;7.50;;
59824;SDS011;45703;50.898;6.054;2023-05-31T04:54:56;13.50;;;7.65;;
59824;SDS011;45703;50.898;6.054;2023-05-31T04:57:22;12.90;;;7.25;;
59824;SDS011;45703;50.898;6.054;2023-05-31T04:59:48;12.80;;;7.45;;
59824;SDS011;45703;50.898;6.054;2023-05-31T05:02:13;14.10;;;7.50;;
59824;SDS011;45703;50.898;6.054;2023-05-31T05:04:39;13.60;;;7.30;;
59824;SDS011;45703;50.898;6.054;2023-05-31T05:07:04;13.60;;;7.25;;
59824;SDS011;45703;50.898;6.054;2023-05-31T05:09:30;14.13;;;7.65;;
59824;SDS011;45703;50.898;6.054;2023-05-31T05:11:55;12.95;;;7.28;;
59824;SDS011;45703;50.898;6.054;2023-05-31T05:14:21;13.13;;;6.43;;
59824;SDS011;45703;50.898;6.054;2023-05-31T05:16:47;14.85;;;7.68;;
59824;SDS011;45703;50.898;6.054;2023-05-31T05:19:12;14.65;;;8.20;;
59824;SDS011;45703;50.898;6.054;2023-05-31T05:21:37;13.68;;;7.60;;
59824;SDS011;45703;50.898;6.054;2023-05-31T05:24:03;13.35;;;7.28;;
59824;SDS011;45703;50.898;6.054;2023-05-31T05:26:28;13.40;;;7.43;;
59824;SDS011;45703;50.898;6.054;2023-05-31T05:28:54;12.60;;;7.47;;
59824;SDS011;45703;50.898;6.054;2023-05-31T05:31:19;15.82;;;8.15;;
59824;SDS011;45703;50.898;6.054;2023-05-31T05:33:45;15.50;;;8.48;;
59824;SDS011;45703;50.898;6.054;2023-05-31T05:36:10;13.70;;;7.95;;
59824;SDS011;45703;50.898;6.054;2023-05-31T05:38:35;12.48;;;7.03;;
59824;SDS011;45703;50.898;6.054;2023-05-31T05:41:01;13.10;;;7.88;;
59824;SDS011;45703;50.898;6.054;2023-05-31T05:43:26;16.48;;;8.52;;
59824;SDS011;45703;50.898;6.054;2023-05-31T05:45:53;14.18;;;9.02;;
59824;SDS011;45703;50.898;6.054;2023-05-31T05:48:19;16.85;;;8.02;;
59824;SDS011;45703;50.898;6.054;2023-05-31T05:50:44;15.32;;;8.50;;
59824;SDS011;45703;50.898;6.054;2023-05-31T05:53:10;13.38;;;7.90;;
59824;SDS011;45703;50.898;6.054;2023-05-31T05:55:36;12.93;;;7.03;;
59824;SDS011;45703;50.898;6.054;2023-05-31T05:58:01;14.43;;;8.52;;
59824;SDS011;45703;50.898;6.054;2023-05-31T06:00:27;12.60;;;6.82;;
59824;SDS011;45703;50.898;6.054;2023-05-31T06:02:53;16.85;;;7.88;;
59824;SDS011;45703;50.898;6.054;2023-05-31T06:05:18;12.88;;;7.03;;
59824;SDS011;45703;50.898;6.054;2023-05-31T06:07:50;14.27;;;7.30;;
59824;SDS011;45703;50.898;6.054;2023-05-31T06:10:16;13.85;;;7.68;;
59824;SDS011;45703;50.898;6.054;2023-05-31T06:12:42;12.60;;;7.05;;
59824;SDS011;45703;50.898;6.054;2023-05-31T06:15:07;12.30;;;7.00;;
59824;SDS011;45703;50.898;6.054;2023-05-31T06:17:33;12.55;;;7.50;;
59824;SDS011;45703;50.898;6.054;2023-05-31T06:19:58;11.15;;;6.47;;
59824;SDS011;45703;50.898;6.054;2023-05-31T06:22:24;12.70;;;7.43;;
59824;SDS011;45703;50.898;6.054;2023-05-31T06:24:49;13.40;;;7.70;;
59824;SDS011;45703;50.898;6.054;2023-05-31T06:27:14;13.50;;;7.55;;
59824;SDS011;45703;50.898;6.054;2023-05-31T06:29:40;11.65;;;6.38;;
59824;SDS011;45703;50.898;6.054;2023-05-31T06:32:06;13.50;;;6.97;;
59824;SDS011;45703;50.898;6.054;2023-05-31T06:34:32;11.98;;;6.32;;
59824;SDS011;45703;50.898;6.054;2023-05-31T06:36:57;14.25;;;7.85;;
59824;SDS011;45703;50.898;6.054;2023-05-31T06:39:25;12.07;;;6.43;;
59824;SDS011;45703;50.898;6.054;2023-05-31T06:41:50;14.85;;;7.68;;
59824;SDS011;45703;50.898;6.054;2023-05-31T06:44:16;13.63;;;7.32;;
59824;SDS011;45703;50.898;6.054;2023-05-31T06:46:41;14.88;;;7.45;;
59824;SDS011;45703;50.898;6.054;2023-05-31T06:49:07;11.68;;;6.18;;
59824;SDS011;45703;50.898;6.054;2023-05-31T06:51:32;12.88;;;7.28;;
59824;SDS011;45703;50.898;6.054;2023-05-31T06:53:58;12.27;;;7.18;;
59824;SDS011;45703;50.898;6.054;2023-05-31T06:56:25;13.40;;;6.88;;
59824;SDS011;45703;50.898;6.054;2023-05-31T06:58:51;12.20;;;6.18;;
59824;SDS011;45703;50.898;6.054;2023-05-31T07:01:16;12.40;;;6.10;;
59824;SDS011;45703;50.898;6.054;2023-05-31T07:03:42;12.00;;;6.47;;
59824;SDS011;45703;50.898;6.054;2023-05-31T07:06:07;12.52;;;6.78;;
59824;SDS011;45703;50.898;6.054;2023-05-31T07:08:33;12.50;;;6.18;;
59824;SDS011;45703;50.898;6.054;2023-05-31T07:11:00;12.10;;;6.28;;
59824;SDS011;45703;50.898;6.054;2023-05-31T07:13:26;10.23;;;5.72;;
59824;SDS011;45703;50.898;6.054;2023-05-31T07:15:51;11.45;;;5.72;;
59824;SDS011;45703;50.898;6.054;2023-05-31T07:18:17;10.90;;;5.82;;
59824;SDS011;45703;50.898;6.054;2023-05-31T07:20:42;12.25;;;5.70;;
59824;SDS011;45703;50.898;6.054;2023-05-31T07:23:08;12.27;;;6.15;;
59824;SDS011;45703;50.898;6.054;2023-05-31T07:25:34;11.60;;;5.85;;
59824;SDS011;45703;50.898;6.054;2023-05-31T07:27:59;12.57;;;6.30;;
59824;SDS011;45703;50.898;6.054;2023-05-31T07:30:25;12.05;;;6.03;;
59824;SDS011;45703;50.898;6.054;2023-05-31T07:32:50;12.23;;;6.05;;
59824;SDS011;45703;50.898;6.054;2023-05-31T07:35:16;12.80;;;6.00;;
59824;SDS011;45703;50.898;6.054;2023-05-31T07:37:41;11.90;;;6.72;;
59824;SDS011;45703;50.898;6.054;2023-05-31T07:40:07;12.73;;;5.95;;
59824;SDS011;45703;50.898;6.054;2023-05-31T07:42:33;10.48;;;5.47;;
59824;SDS011;45703;50.898;6.054;2023-05-31T07:44:58;12.15;;;5.85;;
59824;SDS011;45703;50.898;6.054;2023-05-31T07:47:24;14.60;;;6.47;;
59824;SDS011;45703;50.898;6.054;2023-05-31T07:49:50;10.90;;;5.63;;
59824;SDS011;45703;50.898;6.054;2023-05-31T07:52:16;12.10;;;5.65;;
59824;SDS011;45703;50.898;6.054;2023-05-31T07:54:46;12.90;;;5.57;;
59824;SDS011;45703;50.898;6.054;2023-05-31T07:57:12;10.68;;;5.43;;
59824;SDS011;45703;50.898;6.054;2023-05-31T07:59:38;12.32;;;5.60;;
59824;SDS011;45703;50.898;6.054;2023-05-31T08:02:03;12.48;;;4.90;;
59824;SDS011;45703;50.898;6.054;2023-05-31T08:04:29;10.85;;;5.03;;
59824;SDS011;45703;50.898;6.054;2023-05-31T08:06:54;9.68;;;5.05;;
59824;SDS011;45703;50.898;6.054;2023-05-31T08:09:20;10.95;;;5.28;;
59824;SDS011;45703;50.898;6.054;2023-05-31T08:11:45;10.77;;;5.25;;
59824;SDS011;45703;50.898;6.054;2023-05-31T08:14:11;10.68;;;5.15;;
59824;SDS011;45703;50.898;6.054;2023-05-31T08:16:37;11.18;;;4.68;;
59824;SDS011;45703;50.898;6.054;2023-05-31T08:19:04;9.68;;;4.97;;
59824;SDS011;45703;50.898;6.054;2023-05-31T08:21:30;11.27;;;4.88;;
59824;SDS011;45703;50.898;6.054;2023-05-31T08:23:56;10.57;;;4.97;;
59824;SDS011;45703;50.898;6.054;2023-05-31T08:26:23;11.50;;;5.80;;
59824;SDS011;45703;50.898;6.054;2023-05-31T08:28:48;11.13;;;5.38;;
59824;SDS011;45703;50.898;6.054;2023-05-31T08:31:14;10.75;;;5.05;;
59824;SDS011;45703;50.898;6.054;2023-05-31T08:33:53;11.77;;;5.60;;
59824;SDS011;45703;50.898;6.054;2023-05-31T08:36:20;9.83;;;4.23;;
59824;SDS011;45703;50.898;6.054;2023-05-31T08:38:46;12.23;;;4.57;;
59824;SDS011;45703;50.898;6.054;2023-05-31T08:41:11;11.02;;;5.15;;
59824;SDS011;45703;50.898;6.054;2023-05-31T08:43:36;10.27;;;5.40;;
59824;SDS011;45703;50.898;6.054;2023-05-31T08:46:04;11.93;;;5.55;;
59824;SDS011;45703;50.898;6.054;2023-05-31T08:51:22;10.80;;;5.00;;
59824;SDS011;45703;50.898;6.054;2023-05-31T08:53:49;10.00;;;4.53;;
59824;SDS011;45703;50.898;6.054;2023-05-31T08:56:16;10.23;;;4.63;;
59824;SDS011;45703;50.898;6.054;2023-05-31T08:58:43;13.38;;;5.05;;
59824;SDS011;45703;50.898;6.054;2023-05-31T09:01:13;12.25;;;4.90;;
59824;SDS011;45703;50.898;6.054;2023-05-31T09:03:39;11.70;;;5.05;;
59824;SDS011;45703;50.898;6.054;2023-05-31T09:06:05;9.85;;;4.57;;
59824;SDS011;45703;50.898;6.054;2023-05-31T09:08:31;10.32;;;4.90;;
59824;SDS011;45703;50.898;6.054;2023-05-31T09:10:59;11.63;;;4.95;;
59824;SDS011;45703;50.898;6.054;2023-05-31T09:13:27;12.55;;;4.70;;
59824;SDS011;45703;50.898;6.054;2023-05-31T09:15:52;10.93;;;4.82;;
59824;SDS011;45703;50.898;6.054;2023-05-31T09:18:20;10.38;;;5.18;;
59824;SDS011;45703;50.898;6.054;2023-05-31T09:20:47;9.48;;;4.88;;
59824;SDS011;45703;50.898;6.054;2023-05-31T09:23:13;11.95;;;5.13;;
59824;SDS011;45703;50.898;6.054;2023-05-31T09:25:45;9.65;;;5.13;;
59824;SDS011;45703;50.898;6.054;2023-05-31T09:28:16;11.00;;;5.35;;
59824;SDS011;45703;50.898;6.054;2023-05-31T09:33:12;9.10;;;4.32;;
59824;SDS011;45703;50.898;6.054;2023-05-31T09:35:39;11.23;;;4.38;;
59824;SDS011;45703;50.898;6.054;2023-05-31T09:38:21;10.50;;;4.40;;
59824;SDS011;45703;50.898;6.054;2023-05-31T09:40:56;10.05;;;4.50;;
59824;SDS011;45703;50.898;6.054;2023-05-31T09:43:21;10.57;;;4.43;;
59824;SDS011;45703;50.898;6.054;2023-05-31T09:45:47;9.95;;;4.35;;
59824;SDS011;45703;50.898;6.054;2023-05-31T09:48:13;9.73;;;4.25;;
59824;SDS011;45703;50.898;6.054;2023-05-31T09:50:38;10.40;;;4.38;;
59824;SDS011;45703;50.898;6.054;2023-05-31T09:53:04;9.00;;;3.85;;
59824;SDS011;45703;50.898;6.054;2023-05-31T09:55:39;9.25;;;3.97;;
59824;SDS011;45703;50.898;6.054;2023-05-31T09:58:07;11.30;;;4.45;;
59824;SDS011;45703;50.898;6.054;2023-05-31T10:00:32;10.23;;;3.78;;
59824;SDS011;45703;50.898;6.054;2023-05-31T10:02:58;8.85;;;3.70;;
59824;SDS011;45703;50.898;6.054;2023-05-31T10:05:24;9.10;;;3.58;;
59824;SDS011;45703;50.898;6.054;2023-05-31T10:07:51;8.13;;;3.38;;
59824;SDS011;45703;50.898;6.054;2023-05-31T10:10:17;9.27;;;4.18;;
59824;SDS011;45703;50.898;6.054;2023-05-31T10:12:48;12.15;;;4.45;;
59824;SDS011;45703;50.898;6.054;2023-05-31T10:15:18;9.27;;;4.55;;
59824;SDS011;45703;50.898;6.054;2023-05-31T10:17:52;9.90;;;3.95;;
59824;SDS011;45703;50.898;6.054;2023-05-31T10:20:28;9.10;;;3.63;;
59824;SDS011;45703;50.898;6.054;2023-05-31T10:22:57;7.70;;;3.10;;
59824;SDS011;45703;50.898;6.054;2023-05-31T10:25:30;9.45;;;3.50;;
59824;SDS011;45703;50.898;6.054;2023-05-31T10:28:00;8.57;;;3.10;;
59824;SDS011;45703;50.898;6.054;2023-05-31T10:30:30;8.70;;;3.22;;
59824;SDS011;45703;50.898;6.054;2023-05-31T10:33:12;7.90;;;3.03;;
59824;SDS011;45703;50.898;6.054;2023-05-31T10:35:40;8.95;;;3.60;;
59824;SDS011;45703;50.898;6.054;2023-05-31T10:38:06;7.68;;;3.50;;
59824;SDS011;45703;50.898;6.054;2023-05-31T10:43:07;7.78;;;2.97;;
59824;SDS011;45703;50.898;6.054;2023-05-31T10:45:39;6.80;;;3.00;;
59824;SDS011;45703;50.898;6.054;2023-05-31T10:50:58;8.88;;;3.17;;
59824;SDS011;45703;50.898;6.054;2023-05-31T10:53:28;7.75;;;3.10;;
59824;SDS011;45703;50.898;6.054;2023-05-31T10:56:00;9.90;;;3.22;;
59824;SDS011;45703;50.898;6.054;2023-05-31T10:58:40;7.22;;;2.97;;
59824;SDS011;45703;50.898;6.054;2023-05-31T11:01:11;7.57;;;3.20;;
59824;SDS011;45703;50.898;6.054;2023-05-31T11:03:44;7.32;;;3.00;;
59824;SDS011;45703;50.898;6.054;2023-05-31T11:06:11;7.95;;;2.88;;
59824;SDS011;45703;50.898;6.054;2023-05-31T11:08:39;7.82;;;2.90;;
59824;SDS011;45703;50.898;6.054;2023-05-31T11:14:22;9.02;;;3.03;;
59824;SDS011;45703;50.898;6.054;2023-05-31T11:19:35;8.90;;;3.17;;
59824;SDS011;45703;50.898;6.054;2023-05-31T11:24:49;8.40;;;2.85;;
59824;SDS011;45703;50.898;6.054;2023-05-31T11:27:15;10.65;;;3.17;;
59824;SDS011;45703;50.898;6.054;2023-05-31T11:32:14;8.43;;;3.55;;
59824;SDS011;45703;50.898;6.054;2023-05-31T11:34:59;9.05;;;3.22;;
59824;SDS011;45703;50.898;6.054;2023-05-31T11:37:28;7.40;;;2.65;;
59824;SDS011;45703;50.898;6.054;2023-05-31T11:40:19;8.38;;;3.35;;
59824;SDS011;45703;50.898;6.054;2023-05-31T11:42:44;8.18;;;4.00;;
59824;SDS011;45703;50.898;6.054;2023-05-31T11:45:13;9.20;;;3.33;;
59824;SDS011;45703;50.898;6.054;2023-05-31T11:50:32;8.87;;;3.37;;
59824;SDS011;45703;50.898;6.054;2023-05-31T11:53:01;7.93;;;3.05;;
59824;SDS011;45703;50.898;6.054;2023-05-31T11:55:31;8.68;;;3.65;;
59824;SDS011;45703;50.898;6.054;2023-05-31T11:58:00;8.40;;;3.22;;
59824;SDS011;45703;50.898;6.054;2023-05-31T12:00:26;8.55;;;3.53;;
59824;SDS011;45703;50.898;6.054;2023-05-31T12:02:54;8.38;;;3.10;;
59824;SDS011;45703;50.898;6.054;2023-05-31T12:05:23;9.65;;;3.45;;
59824;SDS011;45703;50.898;6.054;2023-05-31T12:07:52;9.30;;;3.53;;
59824;SDS011;45703;50.898;6.054;2023-05-31T12:10:19;7.47;;;3.42;;
59824;SDS011;45703;50.898;6.054;2023-05-31T12:12:45;7.88;;;3.25;;
59824;SDS011;45703;50.898;6.054;2023-05-31T12:15:11;8.48;;;3.45;;
59824;SDS011;45703;50.898;6.054;2023-05-31T12:17:38;9.55;;;3.25;;
59824;SDS011;45703;50.898;6.054;2023-05-31T12:20:04;7.65;;;3.03;;
59824;SDS011;45703;50.898;6.054;2023-05-31T12:22:30;8.30;;;2.78;;
59824;SDS011;45703;50.898;6.054;2023-05-31T12:24:55;8.85;;;3.05;;
59824;SDS011;45703;50.898;6.054;2023-05-31T12:27:24;8.77;;;3.35;;
59824;SDS011;45703;50.898;6.054;2023-05-31T12:29:55;9.88;;;2.92;;
59824;SDS011;45703;50.898;6.054;2023-05-31T12:32:21;8.00;;;2.60;;
59824;SDS011;45703;50.898;6.054;2023-05-31T12:34:51;8.63;;;2.60;;
59824;SDS011;45703;50.898;6.054;2023-05-31T12:37:17;6.95;;;2.45;;
59824;SDS011;45703;50.898;6.054;2023-05-31T12:39:44;8.07;;;2.75;;
59824;SDS011;45703;50.898;6.054;2023-05-31T12:42:10;8.15;;;2.90;;
59824;SDS011;45703;50.898;6.054;2023-05-31T12:44:36;7.82;;;2.88;;
59824;SDS011;45703;50.898;6.054;2023-05-31T12:47:04;8.63;;;2.70;;
59824;SDS011;45703;50.898;6.054;2023-05-31T12:49:32;9.27;;;2.85;;
59824;SDS011;45703;50.898;6.054;2023-05-31T12:51:59;7.30;;;2.67;;
59824;SDS011;45703;50.898;6.054;2023-05-31T12:54:27;8.00;;;2.90;;
59824;SDS011;45703;50.898;6.054;2023-05-31T12:56:55;10.82;;;3.17;;
59824;SDS011;45703;50.898;6.054;2023-05-31T12:59:23;9.48;;;2.75;;
59824;SDS011;45703;50.898;6.054;2023-05-31T13:01:50;9.25;;;2.90;;
59824;SDS011;45703;50.898;6.054;2023-05-31T13:04:16;6.40;;;2.42;;
59824;SDS011;45703;50.898;6.054;2023-05-31T13:06:41;8.98;;;2.60;;
59824;SDS011;45703;50.898;6.054;2023-05-31T13:09:07;6.72;;;2.42;;
59824;SDS011;45703;50.898;6.054;2023-05-31T13:11:33;9.23;;;3.50;;
59824;SDS011;45703;50.898;6.054;2023-05-31T13:14:05;7.85;;;2.85;;
59824;SDS011;45703;50.898;6.054;2023-05-31T13:16:36;8.35;;;2.80;;
59824;SDS011;45703;50.898;6.054;2023-05-31T13:19:10;8.05;;;2.90;;
59824;SDS011;45703;50.898;6.054;2023-05-31T13:21:38;7.30;;;3.10;;
59824;SDS011;45703;50.898;6.054;2023-05-31T13:24:04;7.03;;;2.83;;
59824;SDS011;45703;50.898;6.054;2023-05-31T13:26:35;8.65;;;2.80;;
59824;SDS011;45703;50.898;6.054;2023-05-31T13:29:01;7.30;;;2.90;;
59824;SDS011;45703;50.898;6.054;2023-05-31T13:31:30;7.20;;;2.53;;
59824;SDS011;45703;50.898;6.054;2023-05-31T13:33:58;8.55;;;2.83;;
59824;SDS011;45703;50.898;6.054;2023-05-31T13:36:26;8.55;;;2.80;;
59824;SDS011;45703;50.898;6.054;2023-05-31T13:38:51;6.72;;;2.83;;
59824;SDS011;45703;50.898;6.054;2023-05-31T13:41:17;7.40;;;2.85;;
59824;SDS011;45703;50.898;6.054;2023-05-31T13:43:43;9.15;;;3.00;;
59824;SDS011;45703;50.898;6.054;2023-05-31T13:46:09;9.55;;;3.17;;
59824;SDS011;45703;50.898;6.054;2023-05-31T13:48:36;6.88;;;2.83;;
59824;SDS011;45703;50.898;6.054;2023-05-31T13:51:05;7.50;;;2.83;;
59824;SDS011;45703;50.898;6.054;2023-05-31T13:53:31;7.28;;;2.72;;
59824;SDS011;45703;50.898;6.054;2023-05-31T13:55:57;7.80;;;2.70;;
59824;SDS011;45703;50.898;6.054;2023-05-31T13:58:23;8.50;;;3.15;;
59824;SDS011;45703;50.898;6.054;2023-05-31T14:00:48;7.68;;;2.83;;
59824;SDS011;45703;50.898;6.054;2023-05-31T14:03:16;7.53;;;2.83;;
59824;SDS011;45703;50.898;6.054;2023-05-31T14:05:42;8.05;;;2.90;;
59824;SDS011;45703;50.898;6.054;2023-05-31T14:08:13;9.30;;;2.63;;
59824;SDS011;45703;50.898;6.054;2023-05-31T14:10:39;8.80;;;2.90;;
59824;SDS011;45703;50.898;6.054;2023-05-31T14:13:04;7.30;;;2.58;;
59824;SDS011;45703;50.898;6.054;2023-05-31T14:15:30;7.60;;;2.30;;
59824;SDS011;45703;50.898;6.054;2023-05-31T14:17:56;7.13;;;2.75;;
59824;SDS011;45703;50.898;6.054;2023-05-31T14:20:21;7.78;;;2.60;;
59824;SDS011;45703;50.898;6.054;2023-05-31T14:22:47;8.82;;;2.50;;
59824;SDS011;45703;50.898;6.054;2023-05-31T14:25:12;9.35;;;2.88;;
59824;SDS011;45703;50.898;6.054;2023-05-31T14:27:37;6.85;;;2.60;;
59824;SDS011;45703;50.898;6.054;2023-05-31T14:30:03;8.07;;;2.63;;
59824;SDS011;45703;50.898;6.054;2023-05-31T14:32:29;8.13;;;2.67;;
59824;SDS011;45703;50.898;6.054;2023-05-31T14:34:55;6.82;;;2.67;;
59824;SDS011;45703;50.898;6.054;2023-05-31T14:37:20;8.57;;;2.95;;
59824;SDS011;45703;50.898;6.054;2023-05-31T14:39:48;8.27;;;2.40;;
59824;SDS011;45703;50.898;6.054;2023-05-31T14:42:13;7.38;;;2.53;;
59824;SDS011;45703;50.898;6.054;2023-05-31T14:44:39;7.32;;;2.90;;
59824;SDS011;45703;50.898;6.054;2023-05-31T14:47:07;7.05;;;2.55;;
59824;SDS011;45703;50.898;6.054;2023-05-31T14:49:35;8.05;;;2.47;;
59824;SDS011;45703;50.898;6.054;2023-05-31T14:52:00;8.35;;;2.63;;
59824;SDS011;45703;50.898;6.054;2023-05-31T14:54:26;7.57;;;2.78;;
59824;SDS011;45703;50.898;6.054;2023-05-31T14:56:52;11.20;;;2.88;;
59824;SDS011;45703;50.898;6.054;2023-05-31T14:59:20;7.15;;;2.63;;
59824;SDS011;45703;50.898;6.054;2023-05-31T15:01:48;8.32;;;2.63;;
59824;SDS011;45703;50.898;6.054;2023-05-31T15:04:14;7.28;;;2.47;;
59824;SDS011;45703;50.898;6.054;2023-05-31T15:06:40;7.55;;;2.45;;
59824;SDS011;45703;50.898;6.054;2023-05-31T15:09:07;8.95;;;2.50;;
59824;SDS011;45703;50.898;6.054;2023-05-31T15:11:33;8.43;;;2.65;;
59824;SDS011;45703;50.898;6.054;2023-05-31T15:13:59;7.32;;;2.70;;